Time;durP1;ratioP1;P1;durP2;ratioP2;P2;SDS_P1;SDS_P2;PMS_P1;PMS_P2;Temp;Humidity;BMP_temperature;BMP_pressure;BME280_temperature;BME280_humidity;BME280_pressure;Samples;Min_cycle;Max_cycle;Signal;HPM_P1;HPM_P2
2024/01/04 08:04:04;;;;;;;1.90;0.47;;;;;;;7.36;100.00;100033.38;5669315;24;20061;-74
2024/01/04 08:06:31;;;;;;;4.07;1.02;;;;;;;7.35;100.00;100034.56;4758780;30;20118;-75
2024/01/04 08:08:59;;;;;;;1.48;0.70;;;;;;;7.34;100.00;100038.53;4763473;30;20067;-75
2024/01/04 08:11:24;;;;;;;1.23;0.80;;;;;;;7.35;100.00;100053.25;4768057;30;20047;-74
2024/01/04 08:13:52;;;;;;;4.53;0.90;;;;;;;7.39;100.00;100049.31;4760809;30;20044;-75
2024/01/04 08:16:19;;;;;;;6.95;1.00;;;;;;;7.40;100.00;100048.16;4764086;30;20047;-75
2024/01/04 08:18:44;;;;;;;4.15;1.13;;;;;;;7.29;100.00;100049.97;4762541;29;20039;-75
2024/01/04 08:21:10;;;;;;;0.98;0.55;;;;;;;7.50;100.00;100053.06;4761557;30;20174;-75
2024/01/04 08:23:40;;;;;;;1.45;0.63;;;;;;;7.38;100.00;100056.09;4763616;30;20040;-75
2024/01/04 08:26:05;;;;;;;2.65;0.60;;;;;;;7.53;100.00;100055.09;4753950;30;20032;-75
2024/01/04 08:28:31;;;;;;;1.63;0.60;;;;;;;7.59;100.00;100051.97;4764592;30;20047;-75
2024/01/04 08:30:56;;;;;;;4.80;1.05;;;;;;;7.45;100.00;100044.25;4762621;30;20031;-75
2024/01/04 08:33:22;;;;;;;1.90;0.73;;;;;;;7.54;100.00;100044.75;4762256;30;20076;-74
2024/01/04 08:35:47;;;;;;;1.60;0.77;;;;;;;7.57;100.00;100057.13;4763345;30;20061;-74
2024/01/04 08:38:12;;;;;;;4.28;1.50;;;;;;;7.31;100.00;100053.19;4763549;29;20040;-75
2024/01/04 08:40:38;;;;;;;0.98;0.75;;;;;;;7.36;100.00;100072.38;4762583;30;20055;-75
2024/01/04 08:43:06;;;;;;;1.00;0.80;;;;;;;7.45;100.00;100070.09;4761108;30;20040;-75
2024/01/04 08:45:34;;;;;;;3.90;1.27;;;;;;;7.53;100.00;100077.38;4754084;30;20020;-75
2024/01/04 08:48:00;;;;;;;3.10;0.73;;;;;;;7.58;100.00;100079.03;4767435;30;20032;-75
2024/01/04 08:50:25;;;;;;;1.45;0.70;;;;;;;7.58;100.00;100083.81;4758930;30;20043;-75
2024/01/04 08:52:51;;;;;;;0.80;0.77;;;;;;;7.53;100.00;100077.38;4764243;30;20043;-76
2024/01/04 08:55:19;;;;;;;2.78;1.00;;;;;;;7.52;100.00;100080.53;4761793;30;20040;-76
2024/01/04 08:57:45;;;;;;;3.72;0.95;;;;;;;7.42;100.00;100087.56;4758699;30;20462;-76
2024/01/04 09:00:11;;;;;;;1.45;1.08;;;;;;;7.47;100.00;100090.00;4756881;30;20036;-75
2024/01/04 09:02:36;;;;;;;5.18;0.95;;;;;;;7.23;100.00;100096.00;4758699;30;20142;-75
2024/01/04 09:05:02;;;;;;;1.55;0.93;;;;;;;7.41;100.00;100085.16;4752889;30;20124;-75
2024/01/04 09:07:27;;;;;;;1.95;1.20;;;;;;;7.46;100.00;100087.59;4749502;30;20392;-75
2024/01/04 09:09:53;;;;;;;5.25;1.23;;;;;;;7.54;100.00;100086.53;4743533;30;20824;-75
2024/01/04 09:12:18;;;;;;;2.95;0.90;;;;;;;7.39;100.00;100098.66;4741678;30;20040;-75
2024/01/04 09:14:46;;;;;;;2.70;1.00;;;;;;;7.43;100.00;100107.84;4743316;30;20029;-75
2024/01/04 09:17:11;;;;;;;6.57;1.00;;;;;;;7.41;100.00;100108.22;4742040;30;20039;-75
2024/01/04 09:19:36;;;;;;;2.38;1.05;;;;;;;7.45;100.00;100114.66;4741257;30;20029;-75
2024/01/04 09:22:02;;;;;;;2.85;1.13;;;;;;;7.50;100.00;100117.09;4745564;30;20500;-74
2024/01/04 09:24:27;;;;;;;0.77;0.65;;;;;;;7.47;100.00;100117.06;4745177;30;20059;-75
2024/01/04 09:26:52;;;;;;;2.47;0.85;;;;;;;7.49;100.00;100115.50;4747872;30;20032;-75
2024/01/04 09:29:18;;;;;;;2.15;0.88;;;;;;;7.42;100.00;100115.41;4742491;30;20432;-74
2024/01/04 09:31:43;;;;;;;2.30;0.80;;;;;;;7.26;100.00;100120.31;4746123;30;20778;-74
2024/01/04 09:34:09;;;;;;;2.50;1.08;;;;;;;7.34;100.00;100130.41;4744078;30;20036;-74
2024/01/04 09:36:34;;;;;;;4.43;1.20;;;;;;;7.30;100.00;100135.09;4750134;30;20544;-74
2024/01/04 09:39:01;;;;;;;1.48;0.75;;;;;;;7.33;100.00;100140.72;4745909;30;20044;-74
2024/01/04 09:41:35;;;;;;;1.35;0.65;;;;;;;7.36;100.00;100144.75;4746318;30;20050;-75
2024/01/04 09:44:05;;;;;;;3.13;0.77;;;;;;;7.41;100.00;100140.84;4744794;30;21805;-75
2024/01/04 09:46:38;;;;;;;3.00;0.80;;;;;;;7.48;100.00;100141.75;4752205;30;20134;-75
2024/01/04 09:49:05;;;;;;;1.50;0.60;;;;;;;7.45;100.00;100148.06;4748951;30;20559;-75
2024/01/04 09:51:34;;;;;;;2.00;0.80;;;;;;;7.50;100.00;100158.88;4741320;30;20126;-74
2024/01/04 09:54:03;;;;;;;3.80;0.77;;;;;;;7.41;100.00;100152.78;4746181;30;20051;-75
2024/01/04 09:56:30;;;;;;;2.35;0.55;;;;;;;7.42;100.00;100153.56;4745832;30;20119;-76
2024/01/04 09:58:56;;;;;;;1.80;0.82;;;;;;;7.53;100.00;100163.69;4744561;30;20518;-77
2024/01/04 10:01:30;;;;;;;1.80;1.17;;;;;;;7.57;100.00;100165.72;4748100;30;20055;-76
2024/01/04 10:03:59;;;;;;;2.70;0.77;;;;;;;7.56;100.00;100164.13;4746559;30;20083;-75
2024/01/04 10:06:30;;;;;;;1.15;0.70;;;;;;;7.57;100.00;100160.16;4737747;30;20530;-75
2024/01/04 10:09:00;;;;;;;3.63;1.27;;;;;;;7.48;100.00;100164.03;4742536;30;20418;-75
2024/01/04 10:11:36;;;;;;;4.30;1.23;;;;;;;7.23;100.00;100148.91;4743351;30;20051;-76
2024/01/04 10:14:03;;;;;;;2.28;1.10;;;;;;;7.52;100.00;100153.72;4741927;30;20087;-76
2024/01/04 10:16:30;;;;;;;3.28;1.15;;;;;;;7.45;100.00;100169.53;4746713;30;20069;-75
2024/01/04 10:18:58;;;;;;;2.33;0.95;;;;;;;7.52;100.00;100181.56;4755179;30;20132;-75
2024/01/04 10:21:31;;;;;;;3.42;1.33;;;;;;;7.54;100.00;100184.78;4745928;30;20028;-75
2024/01/04 10:23:57;;;;;;;2.90;1.13;;;;;;;7.50;100.00;100183.94;4750692;30;20028;-74
2024/01/04 10:26:23;;;;;;;2.90;1.30;;;;;;;7.21;100.00;100187.44;4743834;30;20055;-74
2024/01/04 10:28:54;;;;;;;1.85;1.13;;;;;;;7.50;100.00;100194.28;4745457;30;20036;-74
2024/01/04 10:31:20;;;;;;;4.13;1.23;;;;;;;7.57;100.00;100182.44;4748733;30;20240;-75
2024/01/04 10:33:45;;;;;;;4.18;1.00;;;;;;;7.62;100.00;100184.91;4744203;30;20653;-76
2024/01/04 10:36:11;;;;;;;1.58;0.95;;;;;;;7.61;100.00;100189.69;4745642;30;20055;-76
2024/01/04 10:38:37;;;;;;;0.95;0.80;;;;;;;7.65;100.00;100189.72;4762173;30;20440;-75
2024/01/04 10:41:04;;;;;;;2.75;0.77;;;;;;;7.57;100.00;100196.38;4752974;30;20123;-75
2024/01/04 10:43:31;;;;;;;1.63;0.80;;;;;;;7.43;100.00;100175.47;4747071;30;20070;-74
2024/01/04 10:46:08;;;;;;;0.98;0.63;;;;;;;7.60;100.00;100187.28;4747178;30;20028;-75
2024/01/04 10:48:35;;;;;;;1.50;0.70;;;;;;;7.59;100.00;100191.22;4745784;30;20036;-75
2024/01/04 10:51:04;;;;;;;1.63;0.90;;;;;;;7.51;100.00;100190.31;4747068;30;20526;-74
2024/01/04 10:53:38;;;;;;;1.20;1.05;;;;;;;7.56;100.00;100203.13;4745006;30;20539;-75
2024/01/04 10:56:05;;;;;;;4.20;1.27;;;;;;;7.61;100.00;100202.78;4741421;30;20117;-75
2024/01/04 10:58:37;;;;;;;1.50;0.90;;;;;;;7.60;100.00;100199.22;4743591;30;20044;-76
2024/01/04 11:01:03;;;;;;;3.67;0.82;;;;;;;7.64;100.00;100204.84;4750295;30;20035;-76
2024/01/04 11:03:31;;;;;;;2.70;1.15;;;;;;;7.66;100.00;100208.06;4746689;30;20048;-75
2024/01/04 11:06:00;;;;;;;0.68;0.65;;;;;;;7.69;100.00;100207.28;4745616;30;20609;-75
2024/01/04 11:08:29;;;;;;;3.80;0.65;;;;;;;7.67;100.00;100215.22;4746219;30;20526;-75
2024/01/04 11:10:55;;;;;;;2.22;0.93;;;;;;;7.65;100.00;100223.97;4751333;30;20075;-76
2024/01/04 11:13:20;;;;;;;1.60;0.73;;;;;;;7.61;100.00;100211.16;4746760;30;20126;-75
2024/01/04 11:15:51;;;;;;;1.30;0.77;;;;;;;7.66;100.00;100213.63;4754039;30;20032;-77
2024/01/04 11:18:22;;;;;;;1.10;1.00;;;;;;;7.67;100.00;100220.78;4749428;30;20535;-76
2024/01/04 11:20:57;;;;;;;6.20;1.48;;;;;;;7.67;100.00;100227.19;4746340;30;20118;-77
2024/01/04 11:23:35;;;;;;;4.00;1.30;;;;;;;7.57;100.00;100222.25;4746632;30;20529;-76
2024/01/04 11:26:06;;;;;;;5.53;1.08;;;;;;;7.67;100.00;100220.78;4754999;30;20074;-75
2024/01/04 11:28:32;;;;;;;1.67;1.08;;;;;;;7.67;100.00;100215.22;4745089;30;20093;-75
2024/01/04 11:30:59;;;;;;;2.40;1.30;;;;;;;7.60;100.00;100209.56;4744541;30;20033;-75
2024/01/04 11:33:28;;;;;;;3.15;1.00;;;;;;;7.68;100.00;100211.28;4751413;30;20055;-75
2024/01/04 11:35:53;;;;;;;4.93;1.20;;;;;;;7.67;100.00;100202.13;4742545;30;20074;-74
2024/01/04 11:38:32;;;;;;;1.45;0.88;;;;;;;7.63;100.00;100214.38;4745087;30;20044;-74
2024/01/04 11:40:57;;;;;;;1.95;0.90;;;;;;;7.66;100.00;100219.19;4740878;30;20043;-74
2024/01/04 11:43:24;;;;;;;3.80;1.15;;;;;;;7.76;100.00;100217.75;4740527;30;20036;-75
2024/01/04 11:45:50;;;;;;;6.22;1.42;;;;;;;7.71;100.00;100210.50;4749348;30;20031;-75
2024/01/04 11:48:17;;;;;;;1.20;1.10;;;;;;;7.77;100.00;100214.59;4743410;30;20040;-75
2024/01/04 11:50:48;;;;;;;2.05;0.90;;;;;;;7.59;100.00;100216.28;4746855;30;20075;-75
2024/01/04 11:53:16;;;;;;;1.15;0.70;;;;;;;7.73;100.00;100213.72;4743089;30;20044;-75
2024/01/04 11:55:41;;;;;;;3.03;1.20;;;;;;;7.66;100.00;100220.00;4742531;30;20124;-75
2024/01/04 11:58:08;;;;;;;2.22;0.85;;;;;;;7.59;100.00;100217.13;4745725;30;20123;-75
2024/01/04 12:00:39;;;;;;;1.30;1.00;;;;;;;7.66;100.00;100219.19;4743938;30;20511;-75
2024/01/04 12:03:28;;;;;;;1.52;0.85;;;;;;;7.65;100.00;100214.78;4746981;30;20035;-75
2024/01/04 12:05:56;;;;;;;6.60;0.93;;;;;;;7.70;100.00;100212.50;4744067;30;20044;-75
2024/01/04 12:08:29;;;;;;;1.25;0.75;;;;;;;7.64;100.00;100216.78;4745539;30;20044;-75
2024/01/04 12:10:55;;;;;;;;;;;;;;;7.64;100.00;100221.56;4747489;30;20541;-75
2024/01/04 12:13:20;;;;;;;2.67;0.88;;;;;;;7.72;100.00;100212.13;4744519;30;19957;-75
2024/01/04 12:15:46;;;;;;;0.70;0.70;;;;;;;7.67;100.00;100206.88;4746582;30;20416;-75
2024/01/04 12:18:12;;;;;;;2.08;1.02;;;;;;;7.63;100.00;100206.84;4743975;30;20036;-76
2024/01/04 12:20:37;;;;;;;1.60;0.88;;;;;;;7.70;100.00;100193.00;4742724;30;20068;-75
2024/01/04 12:23:06;;;;;;;2.22;0.93;;;;;;;7.59;100.00;100180.91;4744250;30;20096;-76
2024/01/04 12:25:33;;;;;;;1.10;0.80;;;;;;;7.64;100.00;100193.72;4746049;30;20064;-75
2024/01/04 12:27:59;;;;;;;7.47;1.10;;;;;;;7.36;100.00;100199.59;4739533;30;20024;-75
2024/01/04 12:30:24;;;;;;;4.32;1.10;;;;;;;7.37;100.00;100201.22;4744375;30;20039;-74
2024/01/04 12:32:51;;;;;;;8.38;2.10;;;;;;;7.56;100.00;100203.91;4743563;30;20033;-75
2024/01/04 12:35:17;;;;;;;5.72;1.20;;;;;;;7.65;100.00;100195.28;4746859;30;20768;-74
2024/01/04 12:37:42;;;;;;;1.00;0.90;;;;;;;7.63;100.00;100197.66;4740966;30;20028;-75
2024/01/04 12:40:10;;;;;;;2.85;1.25;;;;;;;7.74;100.00;100195.84;4749242;30;20117;-75
2024/01/04 12:42:36;;;;;;;2.30;1.45;;;;;;;7.30;100.00;100191.59;4738153;30;20039;-74
2024/01/04 12:45:03;;;;;;;7.43;1.70;;;;;;;7.61;100.00;100200.84;4745539;30;20111;-75
2024/01/04 12:47:30;;;;;;;4.38;1.17;;;;;;;7.59;100.00;100203.19;4747239;30;20831;-75
2024/01/04 12:49:57;;;;;;;3.95;1.85;;;;;;;7.58;100.00;100195.19;4738419;30;20513;-74
2024/01/04 12:52:23;;;;;;;3.05;1.20;;;;;;;7.59;100.00;100213.50;4743179;30;20044;-75
2024/01/04 12:54:48;;;;;;;2.88;1.60;;;;;;;7.67;100.00;100207.69;4739279;30;20062;-73
2024/01/04 12:57:14;;;;;;;4.25;1.45;;;;;;;7.50;100.00;100206.22;4736888;30;20028;-73
2024/01/04 12:59:41;;;;;;;1.70;1.08;;;;;;;7.61;100.00;100211.16;4739183;30;20122;-74
2024/01/04 13:02:07;;;;;;;6.18;1.23;;;;;;;7.56;100.00;100201.13;4736090;30;20043;-74
2024/01/04 13:04:32;;;;;;;2.65;1.52;;;;;;;7.66;100.00;100219.19;4740667;30;20613;-74
2024/01/04 13:06:58;;;;;;;3.17;1.40;;;;;;;7.56;100.00;100208.69;4738505;30;20036;-75
2024/01/04 13:09:25;;;;;;;1.95;1.20;;;;;;;7.57;100.00;100218.63;4739331;30;20040;-75
2024/01/04 13:11:51;;;;;;;5.00;1.70;;;;;;;7.74;100.00;100223.72;4742534;30;20542;-75
2024/01/04 13:14:16;;;;;;;2.20;1.67;;;;;;;7.76;100.00;100218.56;4746608;30;20119;-77
2024/01/04 13:16:42;;;;;;;4.55;1.52;;;;;;;7.53;100.00;100222.19;4752562;30;20456;-76
2024/01/04 13:19:07;;;;;;;3.38;1.58;;;;;;;7.57;100.00;100222.25;4745969;30;20051;-75
2024/01/04 13:21:33;;;;;;;6.72;1.85;;;;;;;7.55;100.00;100210.69;4744164;30;20105;-75
2024/01/04 13:23:58;;;;;;;1.35;1.05;;;;;;;7.62;100.00;100218.34;4742145;30;20412;-76
2024/01/04 13:26:23;;;;;;;3.45;1.33;;;;;;;7.63;100.00;100219.94;4743192;30;20463;-75
2024/01/04 13:28:49;;;;;;;5.90;1.67;;;;;;;7.52;100.00;100226.13;4745175;30;20036;-75
2024/01/04 13:31:14;;;;;;;2.10;1.30;;;;;;;7.60;100.00;100226.25;4746171;30;20029;-75
2024/01/04 13:33:40;;;;;;;3.03;1.73;;;;;;;7.52;100.00;100237.28;4740756;30;20040;-75
2024/01/04 13:36:06;;;;;;;3.10;1.25;;;;;;;7.61;100.00;100233.44;4739832;30;20036;-75
2024/01/04 13:38:31;;;;;;;4.22;1.50;;;;;;;7.59;100.00;100241.34;4745675;30;20040;-76
2024/01/04 13:40:56;;;;;;;5.28;1.70;;;;;;;7.44;100.00;100230.00;4744835;30;20082;-75
2024/01/04 13:43:22;;;;;;;2.90;1.52;;;;;;;7.61;100.00;100219.50;4745617;30;20147;-76
2024/01/04 13:45:51;;;;;;;3.85;1.52;;;;;;;7.51;100.00;100218.97;4746484;30;20032;-75
2024/01/04 13:48:16;;;;;;;3.25;1.80;;;;;;;7.66;100.00;100224.78;4745369;30;20032;-75
2024/01/04 13:50:45;;;;;;;9.63;1.77;;;;;;;7.58;100.00;100225.84;4744624;30;20135;-75
2024/01/04 13:53:12;;;;;;;3.47;1.52;;;;;;;7.47;100.00;100226.47;4748060;30;20436;-75
2024/01/04 13:55:38;;;;;;;2.15;1.33;;;;;;;7.46;100.00;100226.81;4743211;30;20456;-75
2024/01/04 13:58:05;;;;;;;2.72;1.48;;;;;;;7.53;100.00;100222.19;4745252;30;20043;-77
2024/01/04 14:00:31;;;;;;;2.72;1.58;;;;;;;7.60;100.00;100229.84;4742103;30;20063;-75
2024/01/04 14:02:57;;;;;;;2.40;1.30;;;;;;;7.64;100.00;100232.69;4743677;30;20384;-75
2024/01/04 14:05:22;;;;;;;2.55;1.73;;;;;;;7.64;100.00;100232.69;4744818;30;20061;-75
2024/01/04 14:07:47;;;;;;;2.65;1.38;;;;;;;7.49;100.00;100229.69;4740056;30;20041;-74
2024/01/04 14:10:13;;;;;;;3.13;1.50;;;;;;;7.40;100.00;100239.44;4740767;30;20040;-75
2024/01/04 14:12:40;;;;;;;3.58;1.40;;;;;;;7.33;100.00;100234.56;4741119;30;20492;-75
2024/01/04 14:15:06;;;;;;;3.42;1.55;;;;;;;7.47;100.00;100232.03;4744252;30;20037;-75
2024/01/04 14:17:32;;;;;;;5.57;1.92;;;;;;;7.30;100.00;100247.25;4740490;30;20040;-75
2024/01/04 14:19:57;;;;;;;2.67;1.40;;;;;;;7.45;100.00;100250.28;4740378;30;20056;-75
2024/01/04 14:22:22;;;;;;;2.65;1.77;;;;;;;7.49;100.00;100249.16;4743353;30;20151;-77
2024/01/04 14:24:48;;;;;;;3.10;1.65;;;;;;;7.58;100.00;100242.53;4739158;30;20033;-75
2024/01/04 14:27:13;;;;;;;3.17;1.90;;;;;;;7.58;100.00;100236.97;4739270;30;20507;-76
2024/01/04 14:29:39;;;;;;;4.18;1.55;;;;;;;7.54;100.00;100250.84;4747046;30;20401;-76
2024/01/04 14:32:05;;;;;;;6.35;1.88;;;;;;;7.37;100.00;100246.56;4745833;30;20094;-76
2024/01/04 14:34:30;;;;;;;2.97;1.48;;;;;;;7.54;100.00;100246.06;4745734;30;20043;-75
2024/01/04 14:36:55;;;;;;;2.13;1.67;;;;;;;7.45;100.00;100251.09;4743759;30;20028;-75
2024/01/04 14:39:21;;;;;;;3.30;1.42;;;;;;;7.44;100.00;100251.47;4741154;30;20036;-75
2024/01/04 14:41:51;;;;;;;6.13;2.25;;;;;;;7.29;100.00;100250.41;4743879;30;20075;-74
2024/01/04 14:44:17;;;;;;;5.35;1.88;;;;;;;7.52;100.00;100251.19;4737985;30;20128;-74
2024/01/04 14:46:42;;;;;;;4.97;2.22;;;;;;;7.56;100.00;100256.03;4739416;30;20432;-74
2024/01/04 14:49:08;;;;;;;4.03;2.00;;;;;;;7.49;100.00;100260.31;4739258;30;20040;-75
2024/01/04 14:51:35;;;;;;;4.13;1.83;;;;;;;7.49;100.00;100257.53;4737128;30;20452;-75
2024/01/04 14:54:01;;;;;;;4.95;1.95;;;;;;;7.46;100.00;100249.09;4742521;30;20037;-76
2024/01/04 14:56:26;;;;;;;1.60;1.35;;;;;;;7.40;100.00;100250.59;4743752;30;20036;-76
2024/01/04 14:58:52;;;;;;;2.40;1.50;;;;;;;7.45;100.00;100253.06;4744229;30;20056;-77
2024/01/04 15:01:17;;;;;;;3.50;1.75;;;;;;;7.36;100.00;100252.50;4746443;30;20036;-77
2024/01/04 15:03:44;;;;;;;6.50;1.48;;;;;;;7.45;100.00;100250.28;4747542;30;20059;-76
2024/01/04 15:06:14;;;;;;;5.35;1.83;;;;;;;7.47;100.00;100254.31;4747025;30;20087;-76
2024/01/04 15:08:40;;;;;;;4.40;1.65;;;;;;;7.43;100.00;100250.66;4749611;30;20562;-76
2024/01/04 15:11:08;;;;;;;6.53;2.10;;;;;;;7.26;100.00;100256.72;4750355;30;20032;-76
2024/01/04 15:13:34;;;;;;;3.30;1.90;;;;;;;7.34;100.00;100250.13;4749582;30;20036;-76
2024/01/04 15:15:59;;;;;;;1.42;1.30;;;;;;;7.26;100.00;100256.72;4744977;30;20044;-74
2024/01/04 15:18:24;;;;;;;2.13;1.77;;;;;;;7.23;100.00;100247.16;4745106;30;20039;-74
2024/01/04 15:20:50;;;;;;;3.03;2.00;;;;;;;7.21;100.00;100262.59;4744305;30;20043;-73
2024/01/04 15:23:15;;;;;;;4.18;1.70;;;;;;;7.24;100.00;100259.06;4749332;30;20393;-73
2024/01/04 15:25:40;;;;;;;3.63;2.35;;;;;;;7.24;100.00;100268.22;4748623;30;20058;-73
2024/01/04 15:28:09;;;;;;;4.75;2.28;;;;;;;7.21;100.00;100259.81;4747456;30;20036;-73
2024/01/04 15:30:38;;;;;;;3.65;1.75;;;;;;;7.24;100.00;100270.22;4743293;30;20520;-73
2024/01/04 15:33:03;;;;;;;2.30;1.48;;;;;;;7.30;100.00;100269.53;4739473;30;20029;-72
2024/01/04 15:35:29;;;;;;;3.38;1.85;;;;;;;7.38;100.00;100275.22;4743432;30;20035;-74
2024/01/04 15:37:55;;;;;;;2.65;2.03;;;;;;;7.28;100.00;100265.50;4744738;30;20033;-72
2024/01/04 15:40:21;;;;;;;3.90;1.80;;;;;;;7.36;100.00;100267.25;4743536;30;20043;-74
2024/01/04 15:42:46;;;;;;;4.32;1.88;;;;;;;7.35;100.00;100264.84;4748478;30;20032;-72
2024/01/04 15:45:12;;;;;;;5.40;1.77;;;;;;;7.35;100.00;100262.06;4749242;30;20174;-74
2024/01/04 15:47:37;;;;;;;6.03;1.75;;;;;;;7.31;100.00;100261.97;4749358;30;20393;-75
2024/01/04 15:50:03;;;;;;;2.35;1.88;;;;;;;7.20;100.00;100272.13;4748144;30;20035;-72
2024/01/04 15:52:29;;;;;;;5.65;2.10;;;;;;;7.17;100.00;100275.63;4747722;30;20111;-73
2024/01/04 15:54:55;;;;;;;9.93;2.42;;;;;;;7.30;100.00;100275.09;4745225;30;20090;-73
2024/01/04 15:57:20;;;;;;;3.35;2.05;;;;;;;7.32;100.00;100274.75;4745772;30;20559;-75
2024/01/04 15:59:46;;;;;;;3.78;1.45;;;;;;;7.25;100.00;100272.63;4745157;30;20236;-73
2024/01/04 16:02:12;;;;;;;2.70;1.73;;;;;;;7.33;100.00;100281.91;4748377;30;20611;-73
2024/01/04 16:04:37;;;;;;;11.70;2.55;;;;;;;7.19;100.00;100287.19;4747539;30;20447;-72
2024/01/04 16:07:04;;;;;;;3.10;1.70;;;;;;;7.23;100.00;100280.56;4740923;30;20036;-76
2024/01/04 16:09:32;;;;;;;2.95;1.40;;;;;;;7.29;100.00;100283.81;4748513;30;20036;-76
2024/01/04 16:11:57;;;;;;;3.38;2.10;;;;;;;7.19;100.00;100276.91;4747986;30;20043;-76
2024/01/04 16:14:23;;;;;;;12.77;5.28;;;;;;;7.30;100.00;100279.88;4748538;30;20040;-75
2024/01/04 16:16:48;;;;;;;13.27;5.97;;;;;;;7.21;100.00;100285.69;4746615;30;20067;-75
2024/01/04 16:19:14;;;;;;;6.70;2.55;;;;;;;7.13;100.00;100284.72;4739572;30;20076;-77
2024/01/04 16:21:39;;;;;;;4.63;2.45;;;;;;;7.10;100.00;100287.44;4743871;30;20510;-76
2024/01/04 16:24:05;;;;;;;6.47;3.22;;;;;;;7.25;100.00;100289.34;4748823;30;20094;-75
2024/01/04 16:26:31;;;;;;;6.78;2.78;;;;;;;7.26;100.00;100284.56;4747788;30;20122;-76
2024/01/04 16:28:57;;;;;;;4.40;3.05;;;;;;;7.21;100.00;100293.22;4748153;30;20480;-76
2024/01/04 16:31:22;;;;;;;7.05;3.08;;;;;;;7.28;100.00;100288.59;4747529;30;20055;-76
2024/01/04 16:33:48;;;;;;;5.07;2.13;;;;;;;7.17;100.00;100286.75;4747604;30;20040;-76
2024/01/04 16:36:14;;;;;;;2.80;2.35;;;;;;;7.02;100.00;100277.34;4745523;30;20032;-76
2024/01/04 16:38:39;;;;;;;4.53;2.10;;;;;;;6.99;100.00;100266.97;4747434;30;20059;-75
2024/01/04 16:41:11;;;;;;;6.07;2.13;;;;;;;7.03;100.00;100276.97;4745314;30;20487;-75
2024/01/04 16:43:39;;;;;;;5.72;2.15;;;;;;;6.99;100.00;100276.13;4746033;30;20064;-76
2024/01/04 16:46:05;;;;;;;5.63;2.60;;;;;;;7.03;100.00;100276.19;4743535;30;20460;-75
2024/01/04 16:48:30;;;;;;;5.32;2.72;;;;;;;7.07;100.00;100283.44;4741080;30;20103;-75
2024/01/04 16:50:56;;;;;;;3.75;2.13;;;;;;;7.11;100.00;100277.94;4741551;30;20036;-76
2024/01/04 16:53:21;;;;;;;4.60;2.70;;;;;;;7.18;100.00;100283.63;4759649;30;20079;-75
2024/01/04 16:55:47;;;;;;;4.03;2.28;;;;;;;7.13;100.00;100279.16;4747865;30;20039;-75
2024/01/04 16:58:14;;;;;;;3.65;2.47;;;;;;;6.97;100.00;100278.44;4745893;30;20479;-76
2024/01/04 17:00:41;;;;;;;6.53;2.25;;;;;;;7.06;100.00;100276.25;4739865;30;20502;-75
2024/01/04 17:03:06;;;;;;;3.85;2.75;;;;;;;7.03;100.00;100271.41;4742764;30;20032;-75
2024/01/04 17:05:32;;;;;;;4.53;2.58;;;;;;;6.96;100.00;100274.06;4738398;30;20583;-75
2024/01/04 17:07:57;;;;;;;5.43;2.70;;;;;;;6.86;100.00;100275.47;4739396;30;20052;-75
2024/01/04 17:10:22;;;;;;;5.63;2.65;;;;;;;6.95;100.00;100269.66;4743232;30;20032;-76
2024/01/04 17:12:48;;;;;;;3.78;2.35;;;;;;;7.03;100.00;100274.19;4745450;30;20508;-75
2024/01/04 17:15:13;;;;;;;9.27;3.50;;;;;;;7.11;100.00;100273.16;4741963;30;20042;-76
2024/01/04 17:17:39;;;;;;;6.70;3.15;;;;;;;6.92;100.00;100281.56;4742597;30;20044;-76
2024/01/04 17:20:05;;;;;;;4.50;3.00;;;;;;;6.68;100.00;100274.28;4745286;30;20404;-76
2024/01/04 17:22:32;;;;;;;5.35;3.25;;;;;;;6.81;100.00;100280.50;4746122;30;20059;-75
2024/01/04 17:24:58;;;;;;;4.65;3.53;;;;;;;6.72;100.00;100273.22;4748101;30;20046;-75
2024/01/04 17:27:26;;;;;;;5.78;3.42;;;;;;;6.78;100.00;100276.50;4741821;30;20029;-76
2024/01/04 17:29:51;;;;;;;6.93;4.63;;;;;;;6.83;100.00;100279.00;4746455;30;20064;-76
2024/01/04 17:32:16;;;;;;;6.13;4.53;;;;;;;6.82;100.00;100280.16;4753204;30;20070;-75
2024/01/04 17:34:42;;;;;;;5.40;3.35;;;;;;;6.83;100.00;100283.72;4746830;30;20111;-75
2024/01/04 17:37:07;;;;;;;7.97;3.53;;;;;;;6.56;100.00;100280.81;4747201;30;20032;-76
2024/01/04 17:39:33;;;;;;;7.18;3.45;;;;;;;6.61;100.00;100283.31;4750154;30;20091;-76
2024/01/04 17:41:59;;;;;;;5.80;3.70;;;;;;;6.76;100.00;100284.41;4750796;30;20156;-76
2024/01/04 17:44:24;;;;;;;7.47;3.30;;;;;;;6.81;100.00;100272.16;4749442;30;20188;-75
2024/01/04 17:46:49;;;;;;;6.65;4.10;;;;;;;6.83;100.00;100267.03;4751613;30;20124;-76
2024/01/04 17:49:14;;;;;;;5.18;3.65;;;;;;;6.90;100.00;100272.75;4751328;30;20036;-76
2024/01/04 17:51:40;;;;;;;11.68;4.50;;;;;;;6.81;100.00;100264.66;4751755;30;20055;-76
2024/01/04 17:54:05;;;;;;;4.78;3.42;;;;;;;6.88;100.00;100270.34;4751267;30;20126;-76
2024/01/04 17:56:30;;;;;;;6.95;3.75;;;;;;;6.94;100.00;100267.28;4749527;30;20048;-76
2024/01/04 17:58:56;;;;;;;6.80;3.97;;;;;;;6.78;100.00;100270.13;4748458;30;20736;-76
2024/01/04 18:01:22;;;;;;;4.80;3.20;;;;;;;6.75;100.00;100270.88;4750971;30;20415;-76
2024/01/04 18:03:47;;;;;;;9.70;3.60;;;;;;;6.50;100.00;100268.38;4752298;30;20039;-76
2024/01/04 18:06:13;;;;;;;5.68;3.97;;;;;;;6.65;100.00;100270.28;4750553;30;20088;-76
2024/01/04 18:08:38;;;;;;;7.80;4.10;;;;;;;6.53;100.00;100275.97;4747841;30;20048;-76
2024/01/04 18:11:03;;;;;;;8.05;4.20;;;;;;;6.73;100.00;100276.81;4748688;30;20040;-76
2024/01/04 18:13:31;;;;;;;7.22;4.70;;;;;;;6.68;100.00;100283.47;4741987;30;20028;-75
2024/01/04 18:15:56;;;;;;;7.88;4.32;;;;;;;6.71;100.00;100285.50;4746617;30;20047;-75
2024/01/04 18:18:22;;;;;;;4.68;3.60;;;;;;;6.69;100.00;100284.28;4743665;30;20048;-76
2024/01/04 18:20:48;;;;;;;5.43;4.93;;;;;;;6.66;100.00;100280.25;4743504;30;20047;-77
2024/01/04 18:23:14;;;;;;;10.88;4.93;;;;;;;6.66;100.00;100288.59;4752791;30;20707;-76
2024/01/04 18:25:39;;;;;;;8.40;4.63;;;;;;;6.85;100.00;100286.97;4751573;30;20040;-76
2024/01/04 18:28:04;;;;;;;7.70;4.32;;;;;;;6.76;100.00;100283.59;4751729;30;20090;-76
2024/01/04 18:30:30;;;;;;;12.50;4.90;;;;;;;6.79;100.00;100288.41;4750226;30;20113;-76
2024/01/04 18:32:55;;;;;;;8.50;3.63;;;;;;;6.80;100.00;100285.28;4750533;30;20044;-76
2024/01/04 18:35:20;;;;;;;6.80;3.78;;;;;;;6.84;100.00;100285.34;4751515;30;20063;-76
2024/01/04 18:37:46;;;;;;;7.88;4.13;;;;;;;6.81;100.00;100291.63;4748678;30;20036;-76
2024/01/04 18:40:11;;;;;;;7.57;3.97;;;;;;;6.77;100.00;100293.53;4747235;30;20038;-76
2024/01/04 18:42:37;;;;;;;5.95;4.32;;;;;;;6.98;100.00;100291.22;4745529;30;20028;-76
2024/01/04 18:45:02;;;;;;;9.07;4.78;;;;;;;6.90;100.00;100289.47;4745821;30;20059;-76
2024/01/04 18:47:28;;;;;;;8.43;4.45;;;;;;;6.94;100.00;100289.53;4743804;30;20033;-76
2024/01/04 18:49:53;;;;;;;7.60;4.40;;;;;;;6.98;100.00;100284.81;4748017;30;20070;-76
2024/01/04 18:52:18;;;;;;;8.68;5.63;;;;;;;6.97;100.00;100283.22;4748397;30;20036;-76
2024/01/04 18:54:44;;;;;;;8.18;4.78;;;;;;;7.02;100.00;100278.16;4748863;30;20039;-76
2024/01/04 18:57:13;;;;;;;8.07;5.15;;;;;;;6.78;100.00;100275.69;4750662;30;20392;-76
2024/01/04 18:59:40;;;;;;;14.88;5.63;;;;;;;6.77;100.00;100279.63;4743850;30;20028;-76
2024/01/04 19:02:05;;;;;;;10.18;4.68;;;;;;;6.81;100.00;100281.34;4751308;30;20051;-76
2024/01/04 19:04:31;;;;;;;7.35;5.10;;;;;;;6.85;100.00;100284.16;4746761;30;20075;-76
2024/01/04 19:06:56;;;;;;;8.85;5.43;;;;;;;6.92;100.00;100276.78;4745969;30;20036;-75
2024/01/04 19:09:23;;;;;;;16.45;7.32;;;;;;;6.92;100.00;100281.56;4748723;30;20122;-76
2024/01/04 19:11:48;;;;;;;6.95;5.22;;;;;;;6.95;100.00;100277.22;4751410;30;20115;-76
2024/01/04 19:14:14;;;;;;;13.20;6.30;;;;;;;6.90;100.00;100273.56;4752495;30;20570;-76
2024/01/04 19:16:41;;;;;;;9.13;5.70;;;;;;;6.79;100.00;100271.72;4751959;30;20066;-75
2024/01/04 19:19:07;;;;;;;13.73;6.93;;;;;;;6.83;100.00;100273.44;4748985;30;20044;-76
2024/01/04 19:21:32;;;;;;;12.95;6.20;;;;;;;6.90;100.00;100276.34;4750972;30;20039;-76
2024/01/04 19:23:57;;;;;;;10.27;6.40;;;;;;;6.86;100.00;100272.69;4752359;30;20032;-76